Terminal Aerodrome Forecast
Issued by NWS Cleveland, OH

Home | Current Version | Previous Version | Text Only | Print | Product List | Glossary Off
Versions: 1 2 3 4 5 6 7 8 9 10 11 12 13 14 15 16 17 18 19 20

691
FTUS41 KCLE 101755 CCA
TAFCAK
TAF COR
KCAK 101755Z 1018/1118 24015G25KT P6SM SCT020 OVC080
     FM102300 23011KT P6SM SCT040 OVC080
     FM110200 24010KT P6SM SCT020 OVC035
      TEMPO 1102/1105 SCT015 OVC020
     FM110500 25008KT P6SM SCT015 OVC020
      TEMPO 1105/1108 BKN015 OVC020
     FM110800 26007KT P6SM BKN015 OVC020
     FM111500 23006KT P6SM OVC030=

USA.gov is the U.S. government's official web portal to all federal, state and local government web resources and services.